PWSweather.com
Personal Weather Stations
Station Observations
KCTCOLEB1
Sandy Brook, Colebrook, CT 06021

Sandy BrookColebrook, CT 06021

Lat: 42.0018, Lon: -73.0825

Elevation: 935

Station Type: Davis Vantage Pro2 + Solar + UV

Latest ConditionsUpdated 4:20:00 PM EDT Thursday, Sep 29, 2016
Currently Today's Max Today's Min Today's Average
Temperature 60.4°F15.8°C 64.5°F18.1°C 52.6°F11.4°C 56.2°F13.4°C
Dew Point 49.0°F9.4°C 49.9°F9.9°C 45.9°F7.7°C 48.3°F9.1°C
Winds 1.2 mph S1.9 kmh S 3.5 mph SW5.6 kmh SW - 1.5 mph 2.4 kmh
Wind Gusts 2.3 mph3.7 kmh 11.5 mph18.5 kmh - -
Humidity 66% 87% 55% 76%
Pressure 30.39 in1029.1 mb 30.42 in1030.1 mb 30.31 in1026.4 mb -
Hour Temp Dew Point Humidity Winds Wind Gusts Pressure Precip Precip Rate Daily Precip Total
04:20 PM 60.4°F15.8°C 49.0°F9.4°C 66% 1.2 mph S1.9 kmh S 2.3 mph3.7 kmh 30.39 in1029.1 mb - 0.00 in0.0 mm 0.00 in0.0 mm
04:10 PM 60.4°F15.8°C 48.2°F9.0°C 64% 1.2 mph W1.9 kmh W 3.5 mph5.6 kmh 30.39 in1029.1 mb - 0.00 in0.0 mm 0.00 in0.0 mm
04:00 PM 60.8°F16.0°C 48.1°F8.9°C 63% 1.2 mph NNE1.9 kmh NNE -- 30.39 in1029.1 mb - 0.00 in0.0 mm 0.00 in0.0 mm
03:50 PM 61.1°F16.2°C 48.0°F8.9°C 62% 1.2 mph SSE1.9 kmh SSE 3.5 mph5.6 kmh 30.39 in1029.1 mb - 0.00 in0.0 mm 0.00 in0.0 mm
03:40 PM 61.5°F16.4°C 47.9°F8.8°C 61% 1.2 mph WSW1.9 kmh WSW 2.3 mph3.7 kmh 30.39 in1029.1 mb - 0.00 in0.0 mm 0.00 in0.0 mm
03:30 PM 62.0°F16.7°C 48.0°F8.9°C 60% 1.2 mph NW1.9 kmh NW 3.5 mph5.6 kmh 30.39 in1029.1 mb - 0.00 in0.0 mm 0.00 in0.0 mm
03:20 PM 62.6°F17.0°C 48.5°F9.2°C 60% 2.3 mph WSW3.7 kmh WSW 4.6 mph7.4 kmh 30.39 in1029.1 mb - 0.00 in0.0 mm 0.00 in0.0 mm
03:10 PM 63.5°F17.5°C 48.9°F9.4°C 59% 1.2 mph WNW1.9 kmh WNW 3.5 mph5.6 kmh 30.39 in1029.1 mb - 0.00 in0.0 mm 0.00 in0.0 mm
03:00 PM 64.2°F17.9°C 49.6°F9.8°C 59% 2.3 mph WNW3.7 kmh WNW 3.5 mph5.6 kmh 30.39 in1029.1 mb - 0.00 in0.0 mm 0.00 in0.0 mm
02:50 PM 64.0°F17.8°C 48.9°F9.4°C 58% 1.2 mph S1.9 kmh S 3.5 mph5.6 kmh 30.39 in1029.1 mb - 0.00 in0.0 mm 0.00 in0.0 mm
02:40 PM 63.9°F17.7°C 48.4°F9.1°C 57% 3.5 mph W5.6 kmh W 3.5 mph5.6 kmh 30.39 in1029.1 mb - 0.00 in0.0 mm 0.00 in0.0 mm
02:30 PM 63.9°F17.7°C 48.4°F9.1°C 57% 1.2 mph W1.9 kmh W 2.3 mph3.7 kmh 30.39 in1029.1 mb - 0.00 in0.0 mm 0.00 in0.0 mm
02:20 PM 64.5°F18.1°C 48.0°F8.9°C 55% 2.3 mph W3.7 kmh W 4.6 mph7.4 kmh 30.39 in1029.1 mb - 0.00 in0.0 mm 0.00 in0.0 mm
02:10 PM 64.2°F17.9°C 49.1°F9.5°C 58% 2.3 mph WNW3.7 kmh WNW 4.6 mph7.4 kmh 30.40 in1029.5 mb - 0.00 in0.0 mm 0.00 in0.0 mm
02:00 PM 63.9°F17.7°C 48.4°F9.1°C 57% 1.2 mph W1.9 kmh W 3.5 mph5.6 kmh 30.40 in1029.5 mb - 0.00 in0.0 mm 0.00 in0.0 mm
01:50 PM 63.5°F17.5°C 47.5°F8.6°C 56% 2.3 mph WSW3.7 kmh WSW 3.5 mph5.6 kmh 30.40 in1029.5 mb - 0.00 in0.0 mm 0.00 in0.0 mm
01:40 PM 63.3°F17.4°C 48.3°F9.1°C 58% 2.3 mph WNW3.7 kmh WNW 5.8 mph9.3 kmh 30.41 in1029.8 mb - 0.00 in0.0 mm 0.00 in0.0 mm
01:30 PM 63.0°F17.2°C 47.1°F8.4°C 56% 2.3 mph WNW3.7 kmh WNW 3.5 mph5.6 kmh 30.41 in1029.8 mb - 0.00 in0.0 mm 0.00 in0.0 mm
01:20 PM 63.1°F17.3°C 47.6°F8.7°C 57% 2.3 mph SW3.7 kmh SW 3.5 mph5.6 kmh 30.41 in1029.8 mb - 0.00 in0.0 mm 0.00 in0.0 mm
01:10 PM 62.5°F16.9°C 47.1°F8.4°C 57% 1.2 mph NW1.9 kmh NW 5.8 mph9.3 kmh 30.41 in1029.8 mb - 0.00 in0.0 mm 0.00 in0.0 mm
01:00 PM 62.2°F16.8°C 46.3°F7.9°C 56% 3.5 mph W5.6 kmh W 4.6 mph7.4 kmh 30.42 in1030.1 mb - 0.00 in0.0 mm 0.00 in0.0 mm
12:50 PM 62.0°F16.7°C 47.5°F8.6°C 59% 1.2 mph W1.9 kmh W 3.5 mph5.6 kmh 30.41 in1029.8 mb - 0.00 in0.0 mm 0.00 in0.0 mm
12:40 PM 60.8°F16.0°C 46.4°F8.0°C 59% 2.3 mph SW3.7 kmh SW 4.6 mph7.4 kmh 30.42 in1030.1 mb - 0.00 in0.0 mm 0.00 in0.0 mm
12:30 PM 60.2°F15.7°C 45.9°F7.7°C 59% 3.5 mph SSW5.6 kmh SSW 4.6 mph7.4 kmh 30.42 in1030.1 mb - 0.00 in0.0 mm 0.00 in0.0 mm
12:20 PM 60.0°F15.6°C 46.5°F8.1°C 61% 1.2 mph NW1.9 kmh NW 1.2 mph1.9 kmh 30.42 in1030.1 mb - 0.00 in0.0 mm 0.00 in0.0 mm
12:10 PM 60.0°F15.6°C 46.9°F8.3°C 62% 2.3 mph W3.7 kmh W 4.6 mph7.4 kmh 30.42 in1030.1 mb - 0.00 in0.0 mm 0.00 in0.0 mm
12:00 PM 59.5°F15.3°C 46.5°F8.1°C 62% 3.5 mph S5.6 kmh S 11.5 mph18.5 kmh 30.41 in1029.8 mb - 0.00 in0.0 mm 0.00 in0.0 mm
11:50 AM 58.6°F14.8°C 46.9°F8.3°C 65% 1.2 mph WSW1.9 kmh WSW 2.3 mph3.7 kmh 30.41 in1029.8 mb - 0.00 in0.0 mm 0.00 in0.0 mm
11:40 AM 58.4°F14.7°C 47.5°F8.6°C 67% 2.3 mph WNW3.7 kmh WNW 3.5 mph5.6 kmh 30.41 in1029.8 mb - 0.00 in0.0 mm 0.00 in0.0 mm
11:30 AM 57.9°F14.4°C 46.2°F7.9°C 65% 1.2 mph WNW1.9 kmh WNW 5.8 mph9.3 kmh 30.41 in1029.8 mb - 0.00 in0.0 mm 0.00 in0.0 mm
11:20 AM 57.9°F14.4°C 47.4°F8.6°C 68% 1.2 mph W1.9 kmh W 5.8 mph9.3 kmh 30.41 in1029.8 mb - 0.00 in0.0 mm 0.00 in0.0 mm
11:10 AM 57.4°F14.1°C 47.3°F8.5°C 69% 2.3 mph NW3.7 kmh NW 3.5 mph5.6 kmh 30.41 in1029.8 mb - 0.00 in0.0 mm 0.00 in0.0 mm
11:00 AM 56.7°F13.7°C 47.4°F8.6°C 71% 2.3 mph WSW3.7 kmh WSW 2.3 mph3.7 kmh 30.40 in1029.5 mb - 0.00 in0.0 mm 0.00 in0.0 mm
10:50 AM 56.3°F13.5°C 47.4°F8.6°C 72% 3.5 mph W5.6 kmh W 9.2 mph14.8 kmh 30.41 in1029.8 mb - 0.00 in0.0 mm 0.00 in0.0 mm
10:40 AM 56.6°F13.7°C 47.7°F8.7°C 72% 2.3 mph W3.7 kmh W 6.9 mph11.1 kmh 30.41 in1029.8 mb - 0.00 in0.0 mm 0.00 in0.0 mm
10:30 AM 56.7°F13.7°C 47.4°F8.6°C 71% 1.2 mph WSW1.9 kmh WSW 3.5 mph5.6 kmh 30.41 in1029.8 mb - 0.00 in0.0 mm 0.00 in0.0 mm
10:20 AM 56.1°F13.4°C 48.6°F9.2°C 76% 1.2 mph SW1.9 kmh SW 3.5 mph5.6 kmh 30.41 in1029.8 mb - 0.00 in0.0 mm 0.00 in0.0 mm
10:10 AM 55.1°F12.8°C 47.3°F8.5°C 75% 3.5 mph ESE5.6 kmh ESE 6.9 mph11.1 kmh 30.42 in1030.1 mb - 0.00 in0.0 mm 0.00 in0.0 mm
10:00 AM 54.6°F12.6°C 47.5°F8.6°C 77% 2.3 mph W3.7 kmh W 3.5 mph5.6 kmh 30.41 in1029.8 mb - 0.00 in0.0 mm 0.00 in0.0 mm
09:50 AM 54.2°F12.3°C 47.5°F8.6°C 78% 2.3 mph NW3.7 kmh NW 2.3 mph3.7 kmh 30.41 in1029.8 mb - 0.00 in0.0 mm 0.00 in0.0 mm
09:40 AM 53.7°F12.1°C 47.7°F8.7°C 80% 2.3 mph NW3.7 kmh NW 2.3 mph3.7 kmh 30.41 in1029.8 mb - 0.00 in0.0 mm 0.00 in0.0 mm
09:30 AM 53.2°F11.8°C 47.2°F8.4°C 80% 2.3 mph WSW3.7 kmh WSW 3.5 mph5.6 kmh 30.41 in1029.8 mb - 0.00 in0.0 mm 0.00 in0.0 mm
09:20 AM 53.1°F11.7°C 47.1°F8.4°C 80% 2.3 mph S3.7 kmh S 4.6 mph7.4 kmh 30.41 in1029.8 mb - 0.00 in0.0 mm 0.00 in0.0 mm
09:10 AM 53.2°F11.8°C 47.2°F8.4°C 80% 1.2 mph N1.9 kmh N 2.3 mph3.7 kmh 30.41 in1029.8 mb - 0.00 in0.0 mm 0.00 in0.0 mm
09:00 AM 53.4°F11.9°C 47.7°F8.7°C 81% 2.3 mph W3.7 kmh W 3.5 mph5.6 kmh 30.40 in1029.5 mb - 0.00 in0.0 mm 0.00 in0.0 mm
08:50 AM 53.3°F11.8°C 47.6°F8.7°C 81% 2.3 mph SW3.7 kmh SW 2.3 mph3.7 kmh 30.39 in1029.1 mb - 0.00 in0.0 mm 0.00 in0.0 mm
08:40 AM 53.2°F11.8°C 47.8°F8.8°C 82% 2.3 mph NW3.7 kmh NW 5.8 mph9.3 kmh 30.39 in1029.1 mb - 0.00 in0.0 mm 0.00 in0.0 mm
08:30 AM 53.0°F11.7°C 47.7°F8.7°C 82% 1.2 mph NW1.9 kmh NW 3.5 mph5.6 kmh 30.39 in1029.1 mb - 0.00 in0.0 mm 0.00 in0.0 mm
08:20 AM 53.0°F11.7°C 48.0°F8.9°C 83% 1.2 mph WNW1.9 kmh WNW 5.8 mph9.3 kmh 30.39 in1029.1 mb - 0.00 in0.0 mm 0.00 in0.0 mm
08:10 AM 52.9°F11.6°C 48.2°F9.0°C 84% Calm Calm 2.3 mph3.7 kmh 30.39 in1029.1 mb - 0.00 in0.0 mm 0.00 in0.0 mm
08:00 AM 52.8°F11.6°C 48.4°F9.1°C 85% 1.2 mph SSW1.9 kmh SSW 2.3 mph3.7 kmh 30.38 in1028.8 mb - 0.00 in0.0 mm 0.00 in0.0 mm
07:50 AM 52.7°F11.5°C 48.0°F8.9°C 84% 2.3 mph W3.7 kmh W 3.5 mph5.6 kmh 30.39 in1029.1 mb - 0.00 in0.0 mm 0.00 in0.0 mm
07:40 AM 52.6°F11.4°C 48.5°F9.2°C 86% 1.2 mph WNW1.9 kmh WNW 2.3 mph3.7 kmh 30.39 in1029.1 mb - 0.00 in0.0 mm 0.00 in0.0 mm
07:30 AM 52.6°F11.4°C 48.2°F9.0°C 85% 1.2 mph W1.9 kmh W 2.3 mph3.7 kmh 30.38 in1028.8 mb - 0.00 in0.0 mm 0.00 in0.0 mm
07:20 AM 52.6°F11.4°C 48.5°F9.2°C 86% 1.2 mph WNW1.9 kmh WNW 1.2 mph1.9 kmh 30.38 in1028.8 mb - 0.00 in0.0 mm 0.00 in0.0 mm
07:10 AM 52.6°F11.4°C 48.2°F9.0°C 85% 1.2 mph SSW1.9 kmh SSW 3.5 mph5.6 kmh 30.38 in1028.8 mb - 0.00 in0.0 mm 0.00 in0.0 mm
07:00 AM 52.6°F11.4°C 48.3°F9.1°C 85% Calm Calm 1.2 mph1.9 kmh 30.37 in1028.4 mb - 0.00 in0.0 mm 0.00 in0.0 mm
06:50 AM 52.7°F11.5°C 48.3°F9.1°C 85% 1.2 mph SW1.9 kmh SW 2.3 mph3.7 kmh 30.37 in1028.4 mb - 0.00 in0.0 mm 0.00 in0.0 mm
06:40 AM 52.8°F11.6°C 48.4°F9.1°C 85% 2.3 mph NW3.7 kmh NW 3.5 mph5.6 kmh 30.37 in1028.4 mb - 0.00 in0.0 mm 0.00 in0.0 mm
06:30 AM 52.8°F11.6°C 48.4°F9.1°C 85% Calm Calm 1.2 mph1.9 kmh 30.37 in1028.4 mb - 0.00 in0.0 mm 0.00 in0.0 mm
06:20 AM 52.9°F11.6°C 48.2°F9.0°C 84% Calm Calm 2.3 mph3.7 kmh 30.36 in1028.1 mb - 0.00 in0.0 mm 0.00 in0.0 mm
06:10 AM 53.0°F11.7°C 48.3°F9.1°C 84% Calm Calm 2.3 mph3.7 kmh 30.36 in1028.1 mb - 0.00 in0.0 mm 0.00 in0.0 mm
06:00 AM 53.1°F11.7°C 48.7°F9.3°C 85% 1.2 mph WNW1.9 kmh WNW 2.3 mph3.7 kmh 30.36 in1028.1 mb - 0.00 in0.0 mm 0.00 in0.0 mm
05:50 AM 53.1°F11.7°C 48.7°F9.3°C 85% 1.2 mph SW1.9 kmh SW 2.3 mph3.7 kmh 30.35 in1027.8 mb - 0.00 in0.0 mm 0.00 in0.0 mm
05:40 AM 53.2°F11.8°C 48.5°F9.2°C 84% 2.3 mph SW3.7 kmh SW 3.5 mph5.6 kmh 30.35 in1027.8 mb - 0.00 in0.0 mm 0.00 in0.0 mm
05:30 AM 53.2°F11.8°C 48.8°F9.3°C 85% Calm Calm 1.2 mph1.9 kmh 30.35 in1027.8 mb - 0.00 in0.0 mm 0.00 in0.0 mm
05:20 AM 53.2°F11.8°C 48.5°F9.2°C 84% Calm Calm 1.2 mph1.9 kmh 30.35 in1027.8 mb - 0.00 in0.0 mm 0.00 in0.0 mm
05:10 AM 53.2°F11.8°C 48.5°F9.2°C 84% 1.2 mph S1.9 kmh S 2.3 mph3.7 kmh 30.34 in1027.4 mb - 0.00 in0.0 mm 0.00 in0.0 mm
05:00 AM 53.3°F11.8°C 48.9°F9.4°C 85% Calm Calm 1.2 mph1.9 kmh 30.34 in1027.4 mb - 0.00 in0.0 mm 0.00 in0.0 mm
04:50 AM 53.4°F11.9°C 48.7°F9.3°C 84% Calm Calm -- 30.34 in1027.4 mb - 0.00 in0.0 mm 0.00 in0.0 mm
04:40 AM 53.4°F11.9°C 48.7°F9.3°C 84% 1.2 mph SW1.9 kmh SW 3.5 mph5.6 kmh 30.34 in1027.4 mb - 0.00 in0.0 mm 0.00 in0.0 mm
04:30 AM 53.4°F11.9°C 48.7°F9.3°C 84% 3.5 mph SW5.6 kmh SW 9.2 mph14.8 kmh 30.34 in1027.4 mb - 0.00 in0.0 mm 0.00 in0.0 mm
04:20 AM 53.4°F11.9°C 48.7°F9.3°C 84% 2.3 mph SW3.7 kmh SW 3.5 mph5.6 kmh 30.34 in1027.4 mb - 0.00 in0.0 mm 0.00 in0.0 mm
04:10 AM 53.4°F11.9°C 49.0°F9.4°C 85% 2.3 mph SSW3.7 kmh SSW 2.3 mph3.7 kmh 30.34 in1027.4 mb - 0.00 in0.0 mm 0.00 in0.0 mm
04:00 AM 53.4°F11.9°C 49.0°F9.4°C 85% 1.2 mph WSW1.9 kmh WSW 3.5 mph5.6 kmh 30.34 in1027.4 mb - 0.00 in0.0 mm 0.00 in0.0 mm
03:50 AM 53.3°F11.8°C 48.9°F9.4°C 85% 1.2 mph WNW1.9 kmh WNW 2.3 mph3.7 kmh 30.34 in1027.4 mb - 0.00 in0.0 mm 0.00 in0.0 mm
03:40 AM 53.3°F11.8°C 49.2°F9.6°C 86% Calm Calm 3.5 mph5.6 kmh 30.33 in1027.1 mb - 0.00 in0.0 mm 0.00 in0.0 mm
03:30 AM 53.3°F11.8°C 49.2°F9.6°C 86% 2.3 mph NW3.7 kmh NW 3.5 mph5.6 kmh 30.33 in1027.1 mb - 0.00 in0.0 mm 0.00 in0.0 mm
03:20 AM 53.2°F11.8°C 49.1°F9.5°C 86% 1.2 mph SSW1.9 kmh SSW 2.3 mph3.7 kmh 30.32 in1026.8 mb - 0.00 in0.0 mm 0.00 in0.0 mm
03:10 AM 53.3°F11.8°C 49.2°F9.6°C 86% Calm Calm 2.3 mph3.7 kmh 30.32 in1026.8 mb - 0.00 in0.0 mm 0.00 in0.0 mm
03:00 AM 53.3°F11.8°C 49.2°F9.6°C 86% Calm Calm 3.5 mph5.6 kmh 30.33 in1027.1 mb - 0.00 in0.0 mm 0.00 in0.0 mm
02:50 AM 53.4°F11.9°C 49.0°F9.4°C 85% Calm Calm -- 30.32 in1026.8 mb - 0.00 in0.0 mm 0.00 in0.0 mm
02:40 AM 53.5°F11.9°C 49.1°F9.5°C 85% 1.2 mph WSW1.9 kmh WSW 2.3 mph3.7 kmh 30.32 in1026.8 mb - 0.00 in0.0 mm 0.00 in0.0 mm
02:30 AM 53.5°F11.9°C 49.4°F9.7°C 86% Calm Calm 1.2 mph1.9 kmh 30.32 in1026.8 mb - 0.00 in0.0 mm 0.00 in0.0 mm
02:20 AM 53.4°F11.9°C 49.3°F9.6°C 86% 1.2 mph SSW1.9 kmh SSW 3.5 mph5.6 kmh 30.32 in1026.8 mb - 0.00 in0.0 mm 0.00 in0.0 mm
02:10 AM 53.5°F11.9°C 49.4°F9.7°C 86% 2.3 mph W3.7 kmh W 2.3 mph3.7 kmh 30.32 in1026.8 mb - 0.00 in0.0 mm 0.00 in0.0 mm
02:00 AM 53.5°F11.9°C 49.4°F9.7°C 86% 1.2 mph WSW1.9 kmh WSW 1.2 mph1.9 kmh 30.32 in1026.8 mb - 0.00 in0.0 mm 0.00 in0.0 mm
01:50 AM 53.6°F12.0°C 49.5°F9.7°C 86% 1.2 mph SW1.9 kmh SW 3.5 mph5.6 kmh 30.32 in1026.8 mb - 0.00 in0.0 mm 0.00 in0.0 mm
01:40 AM 53.7°F12.1°C 49.6°F9.8°C 86% 1.2 mph NNW1.9 kmh NNW 3.5 mph5.6 kmh 30.32 in1026.8 mb - 0.00 in0.0 mm 0.00 in0.0 mm
01:30 AM 53.7°F12.1°C 49.3°F9.6°C 85% Calm Calm 2.3 mph3.7 kmh 30.32 in1026.8 mb - 0.00 in0.0 mm 0.00 in0.0 mm
01:20 AM 53.8°F12.1°C 49.7°F9.8°C 86% Calm Calm 1.2 mph1.9 kmh 30.32 in1026.8 mb - 0.00 in0.0 mm 0.00 in0.0 mm
01:10 AM 53.8°F12.1°C 49.7°F9.8°C 86% 2.3 mph WNW3.7 kmh WNW 3.5 mph5.6 kmh 30.31 in1026.4 mb - 0.00 in0.0 mm 0.00 in0.0 mm
01:00 AM 53.8°F12.1°C 49.7°F9.8°C 86% 1.2 mph NW1.9 kmh NW 2.3 mph3.7 kmh 30.31 in1026.4 mb - 0.00 in0.0 mm 0.00 in0.0 mm
12:50 AM 53.7°F12.1°C 49.6°F9.8°C 86% 1.2 mph WSW1.9 kmh WSW 3.5 mph5.6 kmh 30.31 in1026.4 mb - 0.00 in0.0 mm 0.00 in0.0 mm
12:40 AM 53.7°F12.1°C 49.6°F9.8°C 86% 1.2 mph WSW1.9 kmh WSW 2.3 mph3.7 kmh 30.32 in1026.8 mb - 0.00 in0.0 mm 0.00 in0.0 mm
12:30 AM 53.7°F12.1°C 49.9°F9.9°C 87% Calm Calm 1.2 mph1.9 kmh 30.32 in1026.8 mb - 0.00 in0.0 mm 0.00 in0.0 mm
12:20 AM 53.7°F12.1°C 49.6°F9.8°C 86% 1.2 mph SW1.9 kmh SW 2.3 mph3.7 kmh 30.32 in1026.8 mb - 0.00 in0.0 mm 0.00 in0.0 mm
12:10 AM 53.6°F12.0°C 49.8°F9.9°C 87% 2.3 mph NW3.7 kmh NW 4.6 mph7.4 kmh 30.32 in1026.8 mb - 0.00 in0.0 mm 0.00 in0.0 mm
12:00 AM 53.6°F12.0°C 49.8°F9.9°C 87% 1.2 mph SW1.9 kmh SW 2.3 mph3.7 kmh 30.32 in1026.8 mb - 0.00 in0.0 mm 0.00 in0.0 mm